Time,TemperatureF,DewpointF,PressureIn,WindDirection,WindDirectionDegrees,WindSpeedMPH,WindSpeedGustMPH,Humidity,HourlyPrecipIn,Conditions,Clouds,dailyrainin,SoftwareType,DateUTC
2013-04-24 00:00:00,33.0,13.0,-100.00,East,88,17.0,27.0,43,-99.99,,,-99.99,,2013-04-24 07:00:00,
2013-04-24 01:00:00,34.0,11.0,-100.00,East,92,14.0,27.0,38,-99.99,,,-99.99,,2013-04-24 08:00:00,
2013-04-24 02:00:00,33.0,11.0,-100.00,East,88,14.0,30.0,40,-99.99,,,-99.99,,2013-04-24 09:00:00,
2013-04-24 03:00:00,33.0,16.0,-100.00,East,91,13.0,28.0,49,-99.99,,,-99.99,,2013-04-24 10:00:00,
2013-04-24 04:00:00,34.0,15.0,-100.00,East,94,18.0,29.0,45,-99.99,,,-99.99,,2013-04-24 11:00:00,
2013-04-24 05:00:00,34.0,10.0,-100.00,East,83,17.0,30.0,36,-99.99,,,-99.99,,2013-04-24 12:00:00,
2013-04-24 07:00:00,34.0,13.0,-100.00,East,81,16.0,27.0,42,-99.99,,,-99.99,,2013-04-24 14:00:00,
2013-04-24 08:00:00,34.0,14.0,-100.00,East,100,8.0,20.0,44,-99.99,,,-99.99,,2013-04-24 15:00:00,
2013-04-24 09:00:00,37.0,16.0,-100.00,East,96,7.0,18.0,42,-99.99,,,-99.99,,2013-04-24 16:00:00,
2013-04-24 10:00:00,39.0,16.0,-100.00,ESE,110,7.0,17.0,39,-99.99,,,-99.99,,2013-04-24 17:00:00,
2013-04-24 11:00:00,42.0,18.0,-100.00,ESE,114,5.0,10.0,38,-99.99,,,-99.99,,2013-04-24 18:00:00,
2013-04-24 13:00:00,46.0,18.0,-100.00,East,95,1.0,3.0,32,-99.99,,,-99.99,,2013-04-24 20:00:00,
2013-04-24 14:00:00,49.0,18.0,-100.00,East,93,1.0,5.0,29,-99.99,,,-99.99,,2013-04-24 21:00:00,
2013-04-24 15:00:00,52.0,14.0,-100.00,North,0,0.0,2.0,22,-99.99,,,-99.99,,2013-04-24 22:00:00,
2013-04-24 16:00:00,55.0,21.0,-100.00,North,0,0.0,3.0,26,-99.99,,,-99.99,,2013-04-24 23:00:00,
2013-04-24 17:00:00,56.0,18.0,-100.00,NNW,340,1.0,6.0,22,-99.99,,,-99.99,,2013-04-25 00:00:00,
2013-04-24 18:00:00,54.0,22.0,-100.00,NNW,329,3.0,8.0,28,-99.99,,,-99.99,,2013-04-25 01:00:00,
2013-04-24 19:00:00,48.0,28.0,-100.00,NW,325,5.0,9.0,45,-99.99,,,-99.99,,2013-04-25 02:00:00,
2013-04-24 20:00:00,44.0,9.0,-100.00,NW,321,3.0,8.0,23,-99.99,,,-99.99,,2013-04-25 03:00:00,
2013-04-24 21:00:00,44.0,15.0,-100.00,NNW,334,5.0,8.0,30,-99.99,,,-99.99,,2013-04-25 04:00:00,
2013-04-24 23:00:00,44.0,-2.0,-100.00,NNW,330,7.0,12.0,14,-99.99,,,-99.99,,2013-04-25 06:00:00,